createdAt,value
2023-01-15T00:00:02.231Z,6.59
2023-01-15T00:02:31.616Z,6.64
2023-01-15T00:05:03.098Z,6.62
2023-01-15T00:07:31.003Z,6.63
2023-01-15T00:09:58.602Z,6.68
2023-01-15T00:12:26.228Z,6.66
2023-01-15T00:14:53.825Z,6.63
2023-01-15T00:17:21.570Z,6.71
2023-01-15T00:19:49.157Z,6.69
2023-01-15T00:22:18.161Z,6.79
2023-01-15T00:25:03.346Z,6.68
2023-01-15T00:27:40.121Z,6.61
2023-01-15T00:30:10.923Z,6.59
2023-01-15T00:32:38.552Z,6.63
2023-01-15T00:35:07.193Z,6.69
2023-01-15T00:37:36.297Z,6.60
2023-01-15T00:40:04.358Z,6.55
2023-01-15T00:42:31.971Z,6.57
2023-01-15T00:45:05.642Z,6.56
2023-01-15T00:47:33.582Z,6.57
2023-01-15T00:50:01.234Z,6.59
2023-01-15T00:52:28.951Z,6.60
2023-01-15T00:54:58.015Z,6.64
2023-01-15T00:57:25.853Z,6.58
2023-01-15T00:59:53.503Z,6.53
2023-01-15T01:02:21.303Z,6.63
2023-01-15T01:04:48.965Z,6.57
2023-01-15T01:07:16.711Z,6.42
2023-01-15T01:09:44.473Z,6.55
2023-01-15T01:12:13.540Z,6.57
2023-01-15T01:14:41.161Z,6.52
2023-01-15T01:17:08.942Z,6.56
2023-01-15T01:19:37.785Z,6.54
2023-01-15T01:22:05.287Z,6.53
2023-01-15T01:24:32.998Z,6.53
2023-01-15T01:27:00.589Z,6.46
2023-01-15T01:29:29.594Z,6.46
2023-01-15T01:31:57.244Z,6.51
2023-01-15T01:34:24.930Z,6.50
2023-01-15T01:36:52.550Z,6.40
2023-01-15T01:39:20.896Z,6.49
2023-01-15T01:41:49.473Z,6.52
2023-01-15T01:44:54.632Z,6.47
2023-01-15T01:47:26.573Z,6.42
2023-01-15T01:50:00.526Z,6.42
2023-01-15T01:52:33.193Z,6.40
2023-01-15T01:55:03.140Z,6.35
2023-01-15T01:57:31.313Z,6.40
2023-01-15T02:00:00.208Z,6.30
2023-01-15T02:02:29.521Z,6.36
2023-01-15T02:04:57.396Z,6.39
2023-01-15T02:07:25.432Z,6.36
2023-01-15T02:09:53.046Z,6.29
2023-01-15T02:12:25.983Z,6.38
2023-01-15T02:15:01.139Z,6.35
2023-01-15T02:17:37.689Z,6.38
2023-01-15T02:20:25.678Z,6.46
2023-01-15T02:23:08.258Z,6.34
2023-01-15T02:25:52.918Z,6.32
2023-01-15T02:28:26.863Z,6.39
2023-01-15T02:31:01.019Z,6.44
2023-01-15T02:33:34.858Z,6.32
2023-01-15T02:36:06.414Z,6.32
2023-01-15T02:38:38.984Z,6.40
2023-01-15T02:41:16.166Z,6.35
2023-01-15T02:43:48.846Z,6.34
2023-01-15T02:46:19.458Z,6.31
2023-01-15T02:48:53.344Z,6.36
2023-01-15T02:51:25.909Z,6.35
2023-01-15T02:53:58.253Z,6.24
2023-01-15T02:56:30.948Z,6.27
2023-01-15T02:59:06.365Z,6.25
2023-01-15T03:01:37.756Z,6.17
2023-01-15T03:04:11.317Z,6.05
2023-01-15T03:06:45.369Z,6.16
2023-01-15T03:09:15.365Z,6.27
2023-01-15T03:11:48.520Z,6.22
2023-01-15T03:14:22.689Z,6.16
2023-01-15T03:16:53.114Z,6.24
2023-01-15T03:19:26.969Z,6.26
2023-01-15T03:21:59.090Z,6.17
2023-01-15T03:24:32.838Z,6.15
2023-01-15T03:27:01.477Z,6.12
2023-01-15T03:29:33.924Z,6.10
2023-01-15T03:32:01.961Z,6.05
2023-01-15T03:34:37.979Z,6.00
2023-01-15T03:37:05.822Z,5.96
2023-01-15T03:39:33.926Z,6.00
2023-01-15T03:42:12.485Z,5.92
2023-01-15T03:44:49.069Z,5.91
2023-01-15T03:47:29.407Z,5.91
2023-01-15T03:50:03.465Z,5.91
2023-01-15T03:52:34.560Z,5.93
2023-01-15T03:55:12.768Z,6.00
2023-01-15T03:57:44.860Z,5.95
2023-01-15T04:00:19.901Z,6.04
2023-01-15T04:02:48.759Z,5.90
2023-01-15T04:05:17.100Z,5.95
2023-01-15T04:07:46.091Z,5.98
2023-01-15T04:10:13.990Z,5.92
2023-01-15T04:12:41.639Z,5.92
2023-01-15T04:15:11.427Z,5.91
2023-01-15T04:17:40.488Z,5.94
2023-01-15T04:20:10.527Z,5.76
2023-01-15T04:22:38.089Z,5.90
2023-01-15T04:25:07.182Z,5.94
2023-01-15T04:27:34.779Z,5.95
2023-01-15T04:30:02.671Z,5.95
2023-01-15T04:32:30.396Z,5.98
2023-01-15T04:34:59.450Z,6.05
2023-01-15T04:37:27.163Z,6.04
2023-01-15T04:39:54.783Z,5.95
2023-01-15T04:42:42.324Z,6.05
2023-01-15T04:45:11.167Z,6.01
2023-01-15T04:47:38.656Z,6.01
2023-01-15T04:50:09.005Z,5.96
2023-01-15T04:52:36.660Z,5.95
2023-01-15T04:55:04.697Z,5.80
2023-01-15T04:57:32.275Z,5.86
2023-01-15T05:00:00.014Z,5.82
2023-01-15T05:02:27.807Z,5.78
2023-01-15T05:04:55.561Z,5.76
2023-01-15T05:07:24.581Z,5.71
2023-01-15T05:09:53.397Z,5.83
2023-01-15T05:12:20.835Z,5.79
2023-01-15T05:14:48.469Z,5.76
2023-01-15T05:17:16.155Z,5.80
2023-01-15T05:19:43.813Z,5.85
2023-01-15T05:22:11.650Z,5.88
2023-01-15T05:24:40.872Z,5.85
2023-01-15T05:27:08.556Z,5.86
2023-01-15T05:29:37.012Z,5.87
2023-01-15T05:32:04.845Z,5.90
2023-01-15T05:34:32.514Z,5.86
2023-01-15T05:37:00.483Z,5.74
2023-01-15T05:39:28.155Z,5.80
2023-01-15T05:41:57.172Z,5.83
2023-01-15T05:44:26.224Z,5.76
2023-01-15T05:46:56.353Z,5.79
2023-01-15T05:49:26.067Z,5.78
2023-01-15T05:51:54.895Z,5.76
2023-01-15T05:54:23.381Z,5.83
2023-01-15T05:56:51.142Z,5.77
2023-01-15T05:59:22.058Z,5.79
2023-01-15T06:01:49.928Z,5.74
2023-01-15T06:04:21.010Z,5.67
2023-01-15T06:06:49.879Z,5.63
2023-01-15T06:09:17.383Z,5.65
2023-01-15T06:11:44.993Z,5.68
2023-01-15T06:14:13.568Z,5.64
2023-01-15T06:16:42.891Z,5.65
2023-01-15T06:19:12.489Z,5.60
2023-01-15T06:21:40.425Z,5.55
2023-01-15T06:24:08.905Z,5.58
2023-01-15T06:26:36.642Z,5.50
2023-01-15T06:29:04.567Z,5.49
2023-01-15T06:31:32.627Z,5.47
2023-01-15T06:34:01.712Z,5.46
2023-01-15T06:36:29.627Z,5.37
2023-01-15T06:38:57.306Z,5.37
2023-01-15T06:41:43.892Z,5.32
2023-01-15T06:44:31.441Z,5.35
2023-01-15T06:47:16.751Z,5.37
2023-01-15T06:49:45.749Z,5.36
2023-01-15T06:52:13.494Z,5.36
2023-01-15T06:54:41.125Z,5.33
2023-01-15T06:57:08.793Z,5.32
2023-01-15T06:59:36.550Z,5.36
2023-01-15T07:02:04.203Z,5.28
2023-01-15T07:04:32.076Z,5.27
2023-01-15T07:07:01.089Z,5.16
2023-01-15T07:09:28.951Z,5.15
2023-01-15T07:11:56.571Z,5.12
2023-01-15T07:14:26.739Z,5.12
2023-01-15T07:16:54.841Z,5.14
2023-01-15T07:19:22.438Z,5.14
2023-01-15T07:21:50.099Z,5.14
2023-01-15T07:24:19.361Z,5.11
2023-01-15T07:26:47.211Z,5.04
2023-01-15T07:29:15.769Z,5.16
2023-01-15T07:31:43.573Z,5.17
2023-01-15T07:34:11.781Z,5.16
2023-01-15T07:36:39.535Z,5.28
2023-01-15T07:39:08.445Z,5.24
2023-01-15T07:41:55.196Z,5.27
2023-01-15T07:44:40.525Z,5.33
2023-01-15T07:47:35.231Z,5.39
2023-01-15T07:50:03.384Z,5.39
2023-01-15T07:52:31.059Z,5.38
2023-01-15T07:54:58.811Z,5.38
2023-01-15T07:57:28.295Z,5.29
2023-01-15T07:59:56.013Z,5.47
2023-01-15T08:02:23.636Z,5.50
2023-01-15T08:04:51.198Z,5.49
2023-01-15T08:07:18.779Z,5.59
2023-01-15T08:09:46.514Z,5.59
2023-01-15T08:12:32.055Z,5.63
2023-01-15T08:15:16.594Z,5.53
2023-01-15T08:17:46.329Z,5.61
2023-01-15T08:20:16.013Z,5.66
2023-01-15T08:22:44.349Z,5.68
2023-01-15T08:25:14.211Z,5.75
2023-01-15T08:27:41.921Z,5.80
2023-01-15T08:30:15.170Z,5.86
2023-01-15T08:32:42.824Z,5.88
2023-01-15T08:35:12.908Z,5.98
2023-01-15T08:37:40.651Z,5.95
2023-01-15T08:40:09.519Z,5.98
2023-01-15T08:42:37.000Z,5.99
2023-01-15T08:45:05.146Z,6.05
2023-01-15T08:47:34.133Z,6.10
2023-01-15T08:50:01.819Z,6.11
2023-01-15T08:52:29.476Z,6.03
2023-01-15T08:54:57.179Z,6.00
2023-01-15T08:57:24.748Z,6.03
2023-01-15T08:59:52.417Z,6.09
2023-01-15T09:02:20.048Z,6.01
2023-01-15T09:04:49.089Z,5.99
2023-01-15T09:07:16.995Z,5.99
2023-01-15T09:09:44.728Z,6.01
2023-01-15T09:12:12.410Z,6.04
2023-01-15T09:14:59.620Z,6.07
2023-01-15T09:17:27.599Z,6.15
2023-01-15T09:19:56.587Z,6.22
2023-01-15T09:22:25.267Z,6.29
2023-01-15T09:24:52.921Z,6.31
2023-01-15T09:27:20.617Z,6.31
2023-01-15T09:29:53.616Z,6.36
2023-01-15T09:32:21.270Z,6.37
2023-01-15T09:34:49.028Z,6.32
2023-01-15T09:37:18.045Z,6.37
2023-01-15T09:39:45.717Z,6.41
2023-01-15T09:42:29.155Z,6.36
2023-01-15T09:45:12.314Z,6.42
2023-01-15T09:47:47.492Z,6.41
2023-01-15T09:50:25.671Z,6.50
2023-01-15T09:53:17.882Z,6.50
2023-01-15T09:55:48.539Z,6.52
2023-01-15T09:58:19.449Z,6.50
2023-01-15T10:00:51.453Z,6.58
2023-01-15T10:03:29.115Z,6.55
2023-01-15T10:06:06.676Z,6.28
2023-01-15T10:08:39.609Z,6.00
2023-01-15T10:11:49.350Z,5.91
2023-01-15T10:14:39.178Z,5.75
2023-01-15T10:17:28.376Z,5.69
2023-01-15T10:19:57.878Z,5.69
2023-01-15T10:22:41.206Z,5.90
2023-01-15T10:25:17.726Z,5.99
2023-01-15T10:27:48.800Z,5.76
2023-01-15T10:30:18.537Z,5.91
2023-01-15T10:33:01.469Z,5.88
2023-01-15T10:35:35.746Z,5.89
2023-01-15T10:38:12.922Z,5.99
2023-01-15T10:40:57.801Z,6.05
2023-01-15T10:43:32.762Z,6.17
2023-01-15T10:46:02.820Z,6.19
2023-01-15T10:48:35.870Z,6.26
2023-01-15T10:51:11.070Z,6.38
2023-01-15T10:53:45.125Z,6.34
2023-01-15T10:56:19.381Z,6.34
2023-01-15T10:58:53.284Z,6.30
2023-01-15T11:01:24.700Z,6.34
2023-01-15T11:03:53.359Z,6.35
2023-01-15T11:06:23.442Z,6.48
2023-01-15T11:09:11.191Z,6.40
2023-01-15T11:12:02.830Z,6.39
2023-01-15T11:14:52.660Z,6.32
2023-01-15T11:17:38.529Z,6.14
2023-01-15T11:20:17.072Z,6.35
2023-01-15T11:22:45.068Z,6.47
2023-01-15T11:25:12.936Z,6.50
2023-01-15T11:27:42.029Z,6.58
2023-01-15T11:30:29.262Z,6.65
2023-01-15T11:32:58.989Z,6.67
2023-01-15T11:35:27.515Z,6.77
2023-01-15T11:38:14.604Z,6.77
2023-01-15T11:40:53.667Z,6.83
2023-01-15T11:43:42.843Z,6.67
2023-01-15T11:46:45.621Z,6.57
2023-01-15T11:49:34.712Z,6.55
2023-01-15T11:52:04.175Z,6.53
2023-01-15T11:54:33.917Z,6.53
2023-01-15T11:57:01.586Z,6.49
2023-01-15T11:59:30.606Z,6.45
2023-01-15T12:02:01.412Z,6.36
2023-01-15T12:04:37.305Z,6.50
2023-01-15T12:07:06.602Z,6.51
2023-01-15T12:09:54.674Z,6.46
2023-01-15T12:12:31.784Z,6.57
2023-01-15T12:15:19.829Z,6.55
2023-01-15T12:18:00.399Z,6.39
2023-01-15T12:20:34.199Z,6.44
2023-01-15T12:23:21.795Z,6.40
2023-01-15T12:25:57.200Z,6.30
2023-01-15T12:28:29.265Z,6.48
2023-01-15T12:31:03.032Z,6.24
2023-01-15T12:33:42.018Z,6.27
2023-01-15T12:36:14.516Z,6.04
2023-01-15T12:38:48.611Z,5.94
2023-01-15T12:41:22.185Z,6.00
2023-01-15T12:44:13.717Z,6.14
2023-01-15T12:46:45.513Z,6.11
2023-01-15T12:49:27.569Z,6.02
2023-01-15T12:52:03.156Z,5.98
2023-01-15T12:54:39.452Z,6.01
2023-01-15T12:57:16.160Z,5.96
2023-01-15T12:59:55.170Z,6.05
2023-01-15T13:02:34.342Z,6.11
2023-01-15T13:05:17.136Z,6.15
2023-01-15T13:07:53.021Z,6.15
2023-01-15T13:10:24.944Z,6.14
2023-01-15T13:12:54.749Z,6.11
2023-01-15T13:15:30.292Z,6.26
2023-01-15T13:18:06.084Z,6.32
2023-01-15T13:20:44.539Z,6.51
2023-01-15T13:23:25.781Z,6.61
2023-01-15T13:26:07.184Z,6.73
2023-01-15T13:28:54.450Z,6.90
2023-01-15T13:31:45.986Z,6.96
2023-01-15T13:34:26.028Z,7.11
2023-01-15T13:36:56.350Z,7.04
2023-01-15T13:39:30.042Z,7.02
2023-01-15T13:42:23.089Z,7.09
2023-01-15T13:44:53.758Z,7.11
2023-01-15T13:47:24.952Z,7.07
2023-01-15T13:49:59.777Z,7.12
2023-01-15T13:52:31.560Z,7.11
2023-01-15T13:55:02.210Z,7.09
2023-01-15T13:57:35.784Z,7.17
2023-01-15T14:00:04.444Z,7.20
2023-01-15T14:02:34.570Z,7.21
2023-01-15T14:05:14.469Z,7.30
2023-01-15T14:07:42.134Z,7.35
2023-01-15T14:10:26.263Z,7.44
2023-01-15T14:13:07.849Z,7.37
2023-01-15T14:15:43.595Z,7.33
2023-01-15T14:18:41.033Z,7.24
2023-01-15T14:21:32.197Z,7.24
2023-01-15T14:24:13.726Z,7.33
2023-01-15T14:26:49.583Z,7.35
2023-01-15T14:29:43.357Z,7.34
2023-01-15T14:32:18.277Z,7.35
2023-01-15T14:34:56.278Z,7.29
2023-01-15T14:37:30.116Z,7.42
2023-01-15T14:40:00.361Z,7.36
2023-01-15T14:42:48.749Z,7.40
2023-01-15T14:45:23.204Z,7.33
2023-01-15T14:47:52.971Z,7.32
2023-01-15T14:50:34.763Z,7.32
2023-01-15T14:53:15.278Z,7.38
2023-01-15T14:55:48.659Z,7.35
2023-01-15T14:58:31.082Z,7.39
2023-01-15T15:01:02.191Z,7.27
2023-01-15T15:03:36.192Z,7.26
2023-01-15T15:06:06.064Z,7.29
2023-01-15T15:08:36.436Z,7.20
2023-01-15T15:11:27.734Z,7.09
2023-01-15T15:13:58.574Z,7.06
2023-01-15T15:16:29.419Z,7.02
2023-01-15T15:19:01.659Z,6.62
2023-01-15T15:21:32.575Z,6.23
2023-01-15T15:24:08.409Z,6.21
2023-01-15T15:26:37.956Z,6.11
2023-01-15T15:29:08.179Z,6.11
2023-01-15T15:31:38.347Z,6.14
2023-01-15T15:34:08.115Z,6.15
2023-01-15T15:36:39.609Z,6.18
2023-01-15T15:39:20.099Z,6.24
2023-01-15T15:42:09.415Z,6.26
2023-01-15T15:44:59.639Z,6.06
2023-01-15T15:47:45.493Z,5.48
2023-01-15T15:50:23.837Z,5.16
2023-01-15T15:52:52.052Z,5.08
2023-01-15T15:55:23.430Z,5.03
2023-01-15T15:57:54.996Z,5.00
2023-01-15T16:00:29.500Z,4.94
2023-01-15T16:02:57.719Z,4.94
2023-01-15T16:05:28.848Z,4.88
2023-01-15T16:07:56.785Z,4.90
2023-01-15T16:10:30.446Z,4.91
2023-01-15T16:13:03.423Z,4.93
2023-01-15T16:15:34.085Z,4.98
2023-01-15T16:18:03.882Z,5.09
2023-01-15T16:20:32.052Z,5.12
2023-01-15T16:23:01.565Z,5.15
2023-01-15T16:25:34.205Z,4.92
2023-01-15T16:28:02.347Z,4.84
2023-01-15T16:30:32.140Z,4.82
2023-01-15T16:33:02.261Z,4.83
2023-01-15T16:35:32.336Z,4.82
2023-01-15T16:38:02.668Z,4.80
2023-01-15T16:40:38.252Z,4.92
2023-01-15T16:43:09.567Z,4.95
2023-01-15T16:45:42.182Z,4.80
2023-01-15T16:48:27.442Z,4.89
2023-01-15T16:50:55.174Z,4.77
2023-01-15T16:53:38.493Z,4.78
2023-01-15T16:56:26.514Z,4.73
2023-01-15T16:58:54.241Z,4.78
2023-01-15T17:01:33.162Z,4.79
2023-01-15T17:04:01.310Z,4.81
2023-01-15T17:06:29.799Z,4.83
2023-01-15T17:08:58.775Z,4.79
2023-01-15T17:11:30.289Z,4.87
2023-01-15T17:14:12.437Z,4.94
2023-01-15T17:16:40.233Z,4.99
2023-01-15T17:19:08.861Z,5.04
2023-01-15T17:21:38.851Z,5.07
2023-01-15T17:24:07.783Z,5.10
2023-01-15T17:26:36.975Z,5.11
2023-01-15T17:29:04.685Z,5.10
2023-01-15T17:31:34.231Z,5.09
2023-01-15T17:34:03.552Z,4.97
2023-01-15T17:36:32.878Z,4.92
2023-01-15T17:39:00.597Z,4.94
2023-01-15T17:41:28.333Z,4.79
2023-01-15T17:43:57.303Z,4.94
2023-01-15T17:46:25.193Z,4.87
2023-01-15T17:48:52.852Z,4.93
2023-01-15T17:51:20.885Z,4.89
2023-01-15T17:53:48.674Z,4.79
2023-01-15T17:56:34.036Z,4.86
2023-01-15T17:59:29.012Z,4.83
2023-01-15T18:02:14.657Z,4.75
2023-01-15T18:05:03.513Z,4.74
2023-01-15T18:07:35.927Z,4.68
2023-01-15T18:10:04.543Z,4.73
2023-01-15T18:12:32.388Z,4.71
2023-01-15T18:15:01.679Z,4.72
2023-01-15T18:17:31.584Z,4.79
2023-01-15T18:19:59.261Z,4.79
2023-01-15T18:22:26.994Z,4.73
2023-01-15T18:24:54.673Z,4.75
2023-01-15T18:27:22.384Z,4.74
2023-01-15T18:29:50.038Z,4.76
2023-01-15T18:32:20.633Z,4.66
2023-01-15T18:34:48.457Z,4.62
2023-01-15T18:37:16.148Z,4.62
2023-01-15T18:39:45.016Z,4.61
2023-01-15T18:42:30.036Z,4.53
2023-01-15T18:45:15.745Z,4.56
2023-01-15T18:47:44.902Z,4.55
2023-01-15T18:50:12.555Z,4.51
2023-01-15T18:52:52.561Z,4.56
2023-01-15T18:55:21.419Z,4.53
2023-01-15T18:57:48.988Z,4.50
2023-01-15T19:00:17.911Z,4.43
2023-01-15T19:02:47.108Z,4.48
2023-01-15T19:05:17.095Z,4.40
2023-01-15T19:07:45.695Z,4.38
2023-01-15T19:10:14.726Z,4.32
2023-01-15T19:12:43.712Z,4.32
2023-01-15T19:15:31.694Z,4.35
2023-01-15T19:18:20.734Z,4.35
2023-01-15T19:20:48.404Z,4.25
2023-01-15T19:23:16.271Z,4.23
2023-01-15T19:25:46.356Z,4.21
2023-01-15T19:28:17.700Z,4.01
2023-01-15T19:31:07.626Z,4.16
2023-01-15T19:33:37.112Z,4.07
2023-01-15T19:36:05.358Z,4.02
2023-01-15T19:38:34.464Z,4.02
2023-01-15T19:41:24.888Z,3.99
2023-01-15T19:44:10.010Z,3.94
2023-01-15T19:46:55.568Z,3.89
2023-01-15T19:49:53.601Z,3.92
2023-01-15T19:52:37.770Z,3.87
2023-01-15T19:55:08.421Z,3.85
2023-01-15T19:57:36.088Z,3.80
2023-01-15T20:00:04.582Z,3.75
2023-01-15T20:02:33.785Z,3.80
2023-01-15T20:05:02.965Z,3.86
2023-01-15T20:07:30.873Z,3.77
2023-01-15T20:09:58.546Z,3.71
2023-01-15T20:12:43.673Z,3.76
2023-01-15T20:15:11.774Z,3.65
2023-01-15T20:17:39.398Z,3.70
2023-01-15T20:20:11.268Z,3.72
2023-01-15T20:22:39.029Z,3.64
2023-01-15T20:25:07.894Z,3.63
2023-01-15T20:27:37.146Z,3.60
2023-01-15T20:30:09.999Z,3.56
2023-01-15T20:32:38.534Z,3.49
2023-01-15T20:35:09.502Z,3.48
2023-01-15T20:37:37.169Z,3.50
2023-01-15T20:40:05.695Z,3.52
2023-01-15T20:42:51.030Z,3.54
2023-01-15T20:45:18.803Z,3.55
2023-01-15T20:48:04.062Z,3.50
2023-01-15T20:50:36.069Z,3.40
2023-01-15T20:53:05.441Z,3.45
2023-01-15T20:55:45.604Z,3.46
2023-01-15T20:58:22.451Z,3.46
2023-01-15T21:00:50.709Z,3.47
2023-01-15T21:03:18.663Z,3.38
2023-01-15T21:05:47.914Z,3.35
2023-01-15T21:08:15.814Z,3.43
2023-01-15T21:10:43.563Z,3.38
2023-01-15T21:13:12.997Z,3.37
2023-01-15T21:15:42.401Z,3.28
2023-01-15T21:18:11.665Z,3.23
2023-01-15T21:20:40.123Z,3.13
2023-01-15T21:23:09.159Z,3.18
2023-01-15T21:25:36.814Z,3.21
2023-01-15T21:28:04.809Z,3.20
2023-01-15T21:30:32.488Z,3.17
2023-01-15T21:33:00.157Z,3.27
2023-01-15T21:35:27.946Z,3.32
2023-01-15T21:37:55.591Z,3.29
2023-01-15T21:40:24.706Z,3.31
2023-01-15T21:43:09.799Z,3.31
2023-01-15T21:45:37.547Z,3.32
2023-01-15T21:48:05.195Z,3.33
2023-01-15T21:50:32.775Z,3.43
2023-01-15T21:53:00.518Z,3.50
2023-01-15T21:55:29.483Z,3.57
2023-01-15T21:57:57.966Z,3.62
2023-01-15T22:00:25.639Z,3.68
2023-01-15T22:02:54.169Z,3.75
2023-01-15T22:05:21.828Z,3.79
2023-01-15T22:07:49.521Z,3.80
2023-01-15T22:10:17.746Z,3.79
2023-01-15T22:12:46.807Z,3.81
2023-01-15T22:15:15.737Z,3.89
2023-01-15T22:17:43.558Z,3.86
2023-01-15T22:20:12.452Z,3.89
2023-01-15T22:22:40.151Z,3.91
2023-01-15T22:25:11.512Z,3.94
2023-01-15T22:27:40.906Z,4.01
2023-01-15T22:30:13.546Z,3.88
2023-01-15T22:32:41.146Z,3.99
2023-01-15T22:35:09.997Z,3.89
2023-01-15T22:37:37.552Z,4.01
2023-01-15T22:40:06.626Z,4.01
2023-01-15T22:42:34.327Z,4.04
2023-01-15T22:45:03.971Z,4.04
2023-01-15T22:47:32.981Z,4.07
2023-01-15T22:50:00.667Z,4.14
2023-01-15T22:52:28.431Z,4.18
2023-01-15T22:54:56.208Z,4.16
2023-01-15T22:57:24.036Z,4.16
2023-01-15T22:59:51.825Z,4.15
2023-01-15T23:02:41.312Z,4.20
2023-01-15T23:05:11.384Z,4.16
2023-01-15T23:07:41.425Z,4.15
2023-01-15T23:10:11.825Z,4.22
2023-01-15T23:12:40.391Z,4.19
2023-01-15T23:15:09.818Z,4.17
2023-01-15T23:17:37.500Z,3.99
2023-01-15T23:20:05.983Z,4.24
2023-01-15T23:22:34.994Z,4.22
2023-01-15T23:25:02.671Z,4.23
2023-01-15T23:27:30.374Z,4.25
2023-01-15T23:29:58.162Z,4.22
2023-01-15T23:32:25.767Z,4.22
2023-01-15T23:34:53.486Z,4.18
2023-01-15T23:37:25.329Z,4.09
2023-01-15T23:39:54.311Z,4.06
2023-01-15T23:42:40.064Z,4.06
2023-01-15T23:45:28.780Z,3.99
2023-01-15T23:47:56.528Z,4.02
2023-01-15T23:50:24.815Z,3.98
2023-01-15T23:52:52.615Z,3.95
2023-01-15T23:55:21.657Z,3.94
2023-01-15T23:57:49.262Z,3.95
